Time;durP1;ratioP1;P1;durP2;ratioP2;P2;SDS_P1;SDS_P2;PMS_P1;PMS_P2;Temp;Humidity;BMP_temperature;BMP_pressure;BME280_temperature;BME280_humidity;BME280_pressure;Samples;Min_cycle;Max_cycle;Signal;HPM_P1;HPM_P2
2023/07/21 00:01:28;;;;;;;7.32;2.80;;;;;;;19.01;61.55;100934.13;7361680;19;20043;-62
2023/07/21 00:03:55;;;;;;;6.47;3.17;;;;;;;18.94;62.00;100930.66;7358697;19;20042;-62
2023/07/21 00:06:24;;;;;;;5.93;2.70;;;;;;;18.92;62.22;100939.88;7362062;19;20007;-61
2023/07/21 00:08:53;;;;;;;7.43;2.83;;;;;;;18.89;62.11;100937.63;7357105;19;20015;-61
2023/07/21 00:11:21;;;;;;;7.10;2.80;;;;;;;18.85;62.42;100934.53;7360233;19;20022;-63
2023/07/21 00:13:48;;;;;;;5.90;2.67;;;;;;;18.85;62.49;100929.19;7358544;19;20035;-62
2023/07/21 00:16:15;;;;;;;6.82;3.22;;;;;;;18.85;61.78;100929.19;7357739;19;20034;-61
2023/07/21 00:18:42;;;;;;;6.10;2.42;;;;;;;18.84;62.38;100930.25;7360205;19;20019;-64
2023/07/21 00:21:09;;;;;;;7.65;2.42;;;;;;;18.85;61.88;100928.38;7359661;19;20018;-62
2023/07/21 00:23:36;;;;;;;8.50;2.83;;;;;;;18.84;62.66;100929.41;7355830;19;20909;-62
2023/07/21 00:26:04;;;;;;;6.00;2.72;;;;;;;18.87;61.42;100924.47;7360417;19;20154;-62
2023/07/21 00:28:30;;;;;;;7.43;2.63;;;;;;;18.86;61.91;100917.50;7360728;19;20029;-62
2023/07/21 00:30:57;;;;;;;5.10;2.50;;;;;;;18.87;62.21;100924.47;7360802;19;20043;-61
2023/07/21 00:33:28;;;;;;;4.75;2.03;;;;;;;18.88;61.17;100919.97;7357359;19;20014;-63
2023/07/21 00:35:55;;;;;;;6.82;2.70;;;;;;;18.89;61.57;100913.63;7361252;19;20085;-62
2023/07/21 00:38:22;;;;;;;6.25;2.22;;;;;;;18.86;60.56;100917.50;7355890;19;20933;-62
2023/07/21 00:40:49;;;;;;;7.43;2.65;;;;;;;18.83;60.30;100914.44;7363598;19;21097;-62
2023/07/21 00:43:18;;;;;;;6.13;2.40;;;;;;;18.81;59.09;100911.97;7360098;19;20026;-62
2023/07/21 00:45:49;;;;;;;5.40;2.42;;;;;;;18.76;59.21;100912.56;7360717;19;20102;-61
2023/07/21 00:48:17;;;;;;;5.57;2.70;;;;;;;18.73;59.43;100917.50;7359492;19;20093;-62
2023/07/21 00:50:47;;;;;;;7.22;2.70;;;;;;;18.70;59.62;100912.56;7361696;19;20014;-63
2023/07/21 00:53:14;;;;;;;5.20;2.45;;;;;;;18.69;58.96;100916.28;7357828;19;20021;-61
2023/07/21 00:55:42;;;;;;;5.97;2.25;;;;;;;18.62;59.67;100912.78;7360066;19;20455;-62
2023/07/21 00:58:10;;;;;;;6.07;2.42;;;;;;;18.63;59.92;100904.56;7358177;19;20022;-62
2023/07/21 01:00:38;;;;;;;6.50;2.47;;;;;;;18.61;59.25;100908.44;7360045;19;20006;-61
2023/07/21 01:03:06;;;;;;;6.00;2.47;;;;;;;18.55;59.32;100907.41;7358852;19;20034;-64
2023/07/21 01:05:38;;;;;;;5.40;2.17;;;;;;;18.51;59.46;100908.00;7359654;19;20015;-62
2023/07/21 01:08:05;;;;;;;7.53;2.95;;;;;;;18.45;59.61;100901.63;7363770;19;20058;-62
2023/07/21 01:10:33;;;;;;;5.53;2.15;;;;;;;18.42;60.22;100895.91;7368989;19;20092;-62
2023/07/21 01:13:01;;;;;;;5.97;2.85;;;;;;;18.42;59.45;100898.56;7366337;19;20135;-61
2023/07/21 01:15:33;;;;;;;5.15;2.47;;;;;;;18.37;60.05;100904.50;7363421;19;20046;-63
2023/07/21 01:18:01;;;;;;;8.88;3.17;;;;;;;18.33;59.85;100904.09;7364438;19;20015;-61
2023/07/21 01:20:29;;;;;;;5.88;2.53;;;;;;;18.31;60.04;100905.28;7364484;19;20101;-61
2023/07/21 01:23:26;;;;;;;5.28;2.55;;;;;;;18.29;59.22;100904.66;7367044;19;20060;-62
2023/07/21 01:25:56;;;;;;;6.45;3.30;;;;;;;18.24;59.60;100907.94;7364128;19;20010;-61
2023/07/21 01:28:24;;;;;;;5.60;2.45;;;;;;;18.25;59.19;100904.25;7365965;19;20098;-62
2023/07/21 01:30:53;;;;;;;7.07;3.10;;;;;;;18.23;59.54;100905.50;7369337;19;20773;-62
2023/07/21 01:33:20;;;;;;;6.65;2.95;;;;;;;18.24;57.80;100909.78;7359265;19;20097;-62
2023/07/21 01:35:48;;;;;;;8.48;2.88;;;;;;;18.13;57.50;100895.22;7360869;19;20014;-62
2023/07/21 01:38:18;;;;;;;7.10;2.72;;;;;;;18.14;58.23;100909.34;7362232;19;20094;-62
2023/07/21 01:40:46;;;;;;;7.13;2.70;;;;;;;18.09;58.80;100901.13;7363965;19;20015;-62
2023/07/21 01:43:15;;;;;;;6.00;2.33;;;;;;;18.03;58.30;100907.28;7365225;19;20015;-61
2023/07/21 01:45:42;;;;;;;5.78;2.22;;;;;;;18.05;58.48;100902.53;7363333;19;20632;-62
2023/07/21 01:48:10;;;;;;;5.60;2.50;;;;;;;18.02;58.73;100902.97;7365781;19;20006;-61
2023/07/21 01:50:39;;;;;;;5.47;2.42;;;;;;;18.00;58.64;100902.31;7365240;19;20082;-60
2023/07/21 01:53:12;;;;;;;7.63;2.85;;;;;;;17.95;59.00;100902.94;7360750;19;20018;-62
2023/07/21 01:56:02;;;;;;;4.90;2.55;;;;;;;17.89;59.73;100909.03;7362424;19;20667;-62
2023/07/21 01:58:33;;;;;;;6.18;2.63;;;;;;;17.88;59.65;100912.72;7362162;19;20017;-62
2023/07/21 02:01:01;;;;;;;5.80;2.80;;;;;;;17.82;60.23;100901.03;7365240;19;20023;-61
2023/07/21 02:03:28;;;;;;;6.63;3.00;;;;;;;17.83;59.85;100904.50;7362363;19;20018;-62
2023/07/21 02:05:56;;;;;;;7.90;3.22;;;;;;;17.80;59.56;100896.94;7361980;19;20022;-62
2023/07/21 02:08:23;;;;;;;6.22;2.97;;;;;;;17.75;60.10;100892.19;7359743;19;20022;-61
2023/07/21 02:10:52;;;;;;;7.88;3.47;;;;;;;17.65;60.71;100891.75;7364471;19;20038;-62
2023/07/21 02:13:19;;;;;;;7.05;3.35;;;;;;;17.61;60.17;100887.84;7364941;19;21188;-61
2023/07/21 02:15:47;;;;;;;9.52;3.55;;;;;;;17.60;61.05;100891.50;7361536;19;20015;-62
2023/07/21 02:18:14;;;;;;;6.65;3.00;;;;;;;17.55;60.80;100883.25;7356719;19;20106;-62
2023/07/21 02:20:41;;;;;;;6.03;3.17;;;;;;;17.54;60.84;100889.59;7364262;19;20016;-63
2023/07/21 02:23:08;;;;;;;8.00;3.30;;;;;;;17.56;60.19;100890.22;7362201;19;20011;-62
2023/07/21 02:25:35;;;;;;;7.03;3.20;;;;;;;17.57;60.32;100888.41;7362342;19;20362;-62
2023/07/21 02:28:03;;;;;;;8.90;3.13;;;;;;;17.59;60.56;100886.34;7363131;19;20459;-62
2023/07/21 02:30:29;;;;;;;8.75;3.55;;;;;;;17.63;60.02;100903.59;7366147;19;20022;-62
2023/07/21 02:32:57;;;;;;;7.50;3.10;;;;;;;17.59;60.18;100892.53;7362354;19;21410;-61
2023/07/21 02:35:24;;;;;;;8.23;3.90;;;;;;;17.57;60.28;100889.22;7356810;19;20028;-61
2023/07/21 02:37:51;;;;;;;7.35;3.40;;;;;;;17.56;61.96;100892.06;7359752;19;20098;-62
2023/07/21 02:40:19;;;;;;;8.98;3.90;;;;;;;17.53;60.34;100895.94;7362582;19;20045;-62
2023/07/21 02:42:46;;;;;;;7.07;3.40;;;;;;;17.52;60.97;100889.78;7361856;19;20018;-62
2023/07/21 02:45:13;;;;;;;9.02;4.65;;;;;;;17.53;60.90;100893.28;7364448;19;20014;-61
2023/07/21 02:47:40;;;;;;;8.38;4.05;;;;;;;17.54;60.28;100890.41;7360006;19;20129;-62
2023/07/21 02:50:10;;;;;;;9.40;4.28;;;;;;;17.53;60.04;100891.44;7361198;19;20980;-64
2023/07/21 02:52:38;;;;;;;7.65;4.20;;;;;;;17.52;60.33;100895.09;7362424;19;20018;-61
2023/07/21 02:55:06;;;;;;;9.73;4.30;;;;;;;17.53;60.67;100890.59;7358496;19;20010;-62
2023/07/21 02:57:34;;;;;;;9.25;4.40;;;;;;;17.48;60.47;100896.53;7364296;19;20043;-63
2023/07/21 03:00:05;;;;;;;7.00;4.05;;;;;;;17.50;60.84;100891.00;7361177;19;20031;-62
2023/07/21 03:02:34;;;;;;;8.65;3.95;;;;;;;17.53;60.32;100887.94;7364646;19;20158;-62
2023/07/21 03:05:05;;;;;;;10.35;5.07;;;;;;;17.46;60.31;100895.09;7360458;19;20020;-63
2023/07/21 03:07:32;;;;;;;7.65;3.70;;;;;;;17.41;60.00;100901.00;7364396;19;20019;-62
2023/07/21 03:10:00;;;;;;;7.60;3.92;;;;;;;17.34;60.10;100893.97;7362226;19;20039;-62
2023/07/21 03:12:27;;;;;;;7.30;4.00;;;;;;;17.29;60.41;100894.56;7362613;19;20010;-63
2023/07/21 03:14:54;;;;;;;8.48;4.22;;;;;;;17.27;60.79;100890.47;7362189;19;20089;-61
2023/07/21 03:17:25;;;;;;;11.25;4.53;;;;;;;17.22;60.12;100892.91;7365068;19;20085;-62
2023/07/21 03:19:52;;;;;;;8.18;4.00;;;;;;;17.20;60.67;100893.09;7357623;19;20038;-63
2023/07/21 03:22:19;;;;;;;8.35;3.90;;;;;;;17.20;60.90;100893.09;7359922;19;20956;-62
2023/07/21 03:24:46;;;;;;;8.43;4.43;;;;;;;17.20;60.82;100886.94;7358260;19;21805;-62
2023/07/21 03:27:14;;;;;;;9.23;3.83;;;;;;;17.17;60.15;100890.78;7363099;19;20019;-63
2023/07/21 03:29:42;;;;;;;8.55;3.72;;;;;;;17.14;59.96;100901.00;7359387;19;20014;-61
2023/07/21 03:32:12;;;;;;;8.73;4.32;;;;;;;17.10;59.91;100889.94;7361599;19;20018;-62
2023/07/21 03:34:39;;;;;;;8.45;3.95;;;;;;;17.07;60.15;100887.66;7359809;19;20448;-61
2023/07/21 03:37:08;;;;;;;10.10;3.97;;;;;;;16.99;60.44;100893.94;7358474;19;20021;-61
2023/07/21 03:39:35;;;;;;;9.50;4.30;;;;;;;16.93;60.69;100897.38;7357394;19;20021;-60
2023/07/21 03:42:02;;;;;;;7.53;4.25;;;;;;;16.87;61.22;100892.00;7363253;19;21289;-59
2023/07/21 03:44:29;;;;;;;10.40;4.05;;;;;;;16.86;61.18;100896.53;7361774;19;20571;-60
2023/07/21 03:46:56;;;;;;;7.82;3.97;;;;;;;16.84;60.85;100897.72;7361520;19;21626;-61
2023/07/21 03:49:23;;;;;;;8.38;4.20;;;;;;;16.81;60.90;100898.91;7358972;19;20010;-61
2023/07/21 03:51:50;;;;;;;12.32;4.25;;;;;;;16.75;61.36;100899.69;7361889;19;20014;-60
2023/07/21 03:54:17;;;;;;;7.20;3.55;;;;;;;16.76;61.93;100892.53;7358670;19;20040;-61
2023/07/21 03:56:44;;;;;;;9.60;4.53;;;;;;;16.74;61.86;100897.22;7358789;19;20171;-60
2023/07/21 03:59:11;;;;;;;9.68;4.63;;;;;;;16.72;62.12;100894.75;7358075;19;20358;-59
2023/07/21 04:01:38;;;;;;;9.48;4.75;;;;;;;16.76;62.35;100900.50;7362425;19;20015;-61
2023/07/21 04:04:05;;;;;;;9.75;4.68;;;;;;;16.78;62.18;100904.59;7360222;19;20030;-61
2023/07/21 04:06:33;;;;;;;10.10;4.72;;;;;;;16.70;61.98;100904.75;7360197;19;20018;-61
2023/07/21 04:09:00;;;;;;;8.32;3.90;;;;;;;16.70;62.32;100898.63;7359248;19;20146;-62
2023/07/21 04:11:27;;;;;;;7.38;3.63;;;;;;;16.65;62.07;100892.03;7358590;19;20553;-61
2023/07/21 04:13:54;;;;;;;8.00;3.80;;;;;;;16.70;62.36;100895.97;7358100;19;20527;-62
2023/07/21 04:16:21;;;;;;;11.38;4.65;;;;;;;16.68;62.11;100902.28;7359049;19;20025;-61
2023/07/21 04:18:48;;;;;;;8.32;3.65;;;;;;;16.65;62.49;100900.00;7361503;19;20086;-60
2023/07/21 04:21:15;;;;;;;10.02;4.10;;;;;;;16.64;62.32;100900.19;7362415;19;20014;-61
2023/07/21 04:23:42;;;;;;;8.85;4.55;;;;;;;16.67;62.57;100911.25;7355710;19;20115;-59
2023/07/21 04:26:14;;;;;;;10.75;4.45;;;;;;;16.69;62.62;100916.38;7358270;19;20022;-61
2023/07/21 04:28:45;;;;;;;7.60;3.95;;;;;;;16.69;62.30;100913.72;7358266;19;20018;-60
2023/07/21 04:31:12;;;;;;;9.25;5.07;;;;;;;16.70;62.14;100906.59;7361399;19;20006;-61
2023/07/21 04:33:39;;;;;;;8.75;4.30;;;;;;;16.68;62.33;100909.44;7357158;19;20684;-61
2023/07/21 04:36:08;;;;;;;9.20;4.60;;;;;;;16.69;62.37;100911.06;7354752;19;21067;-61
2023/07/21 04:38:40;;;;;;;8.40;4.28;;;;;;;16.68;62.76;100920.06;7353716;19;20705;-62
2023/07/21 04:41:07;;;;;;;8.68;4.25;;;;;;;16.66;62.44;100920.22;7359221;19;20121;-62
2023/07/21 04:43:34;;;;;;;7.75;4.20;;;;;;;16.59;62.49;100911.41;7358944;19;20042;-61
2023/07/21 04:46:01;;;;;;;9.63;4.57;;;;;;;16.59;62.88;100908.75;7359276;19;20085;-62
2023/07/21 04:48:28;;;;;;;9.23;5.20;;;;;;;16.58;63.10;100909.75;7357737;19;20071;-61
2023/07/21 04:50:56;;;;;;;8.82;4.78;;;;;;;16.56;63.32;100913.56;7356102;19;20017;-61
2023/07/21 04:53:23;;;;;;;8.60;4.32;;;;;;;16.52;63.79;100913.13;7355748;19;20478;-61
2023/07/21 04:55:57;;;;;;;8.35;4.60;;;;;;;16.51;63.41;100908.81;7357924;19;20010;-61
2023/07/21 04:58:24;;;;;;;8.68;4.38;;;;;;;16.44;63.25;100912.44;7357174;19;20017;-61
2023/07/21 05:00:54;;;;;;;9.82;4.55;;;;;;;16.42;63.58;100917.09;7356282;19;20015;-63
2023/07/21 05:03:21;;;;;;;11.65;5.43;;;;;;;16.44;63.70;100913.25;7356582;19;20022;-62
2023/07/21 05:05:49;;;;;;;9.95;4.28;;;;;;;16.48;63.72;100905.72;7356467;19;20010;-62
2023/07/21 05:08:16;;;;;;;9.27;4.10;;;;;;;16.51;63.55;100914.13;7354760;19;20021;-62
2023/07/21 05:10:43;;;;;;;10.02;5.05;;;;;;;16.55;63.96;100898.66;7356988;19;20056;-62
2023/07/21 05:13:10;;;;;;;9.63;4.72;;;;;;;16.59;63.81;100900.78;7356053;19;20011;-62
2023/07/21 05:15:37;;;;;;;10.13;4.30;;;;;;;16.61;63.67;100901.38;7359558;19;20110;-62
2023/07/21 05:18:04;;;;;;;8.52;4.68;;;;;;;16.62;63.62;100905.69;7359519;19;20029;-62
2023/07/21 05:20:31;;;;;;;8.95;4.88;;;;;;;16.64;64.18;100905.50;7358478;19;20034;-63
2023/07/21 05:22:58;;;;;;;10.52;4.85;;;;;;;16.65;63.89;100908.00;7354066;19;20022;-61
2023/07/21 05:25:27;;;;;;;12.32;5.35;;;;;;;16.70;63.90;100901.28;7357278;19;20521;-62
2023/07/21 05:27:54;;;;;;;9.35;4.90;;;;;;;16.66;63.96;100903.47;7360058;19;20026;-61
2023/07/21 05:30:22;;;;;;;9.65;4.22;;;;;;;16.64;64.58;100900.19;7355740;19;20026;-62
2023/07/21 05:32:49;;;;;;;10.75;5.00;;;;;;;16.64;65.49;100898.38;7358093;19;20018;-62
2023/07/21 05:35:16;;;;;;;11.90;5.40;;;;;;;16.62;64.53;100907.53;7355692;19;20014;-63
2023/07/21 05:37:43;;;;;;;16.15;5.78;;;;;;;16.56;64.60;100909.06;7350807;19;20025;-62
2023/07/21 05:40:11;;;;;;;10.60;4.95;;;;;;;16.58;65.49;100909.75;7354200;19;21850;-62
2023/07/21 05:42:38;;;;;;;11.90;5.22;;;;;;;16.62;65.05;100916.31;7356587;19;20018;-63
2023/07/21 05:45:06;;;;;;;12.43;5.75;;;;;;;16.64;65.09;100916.13;7356595;19;20098;-61
2023/07/21 05:47:33;;;;;;;11.40;4.78;;;;;;;16.65;65.79;100912.47;7356122;19;20086;-62
2023/07/21 05:50:01;;;;;;;11.95;5.68;;;;;;;16.67;65.54;100916.56;7356055;19;20395;-63
2023/07/21 05:52:28;;;;;;;9.40;5.25;;;;;;;16.72;65.33;100918.66;7355406;19;20106;-62
2023/07/21 05:54:55;;;;;;;9.70;5.18;;;;;;;16.73;64.45;100916.81;7362388;19;20087;-61
2023/07/21 05:57:22;;;;;;;11.05;5.25;;;;;;;16.75;64.97;100920.13;7362679;19;20890;-64
2023/07/21 05:59:49;;;;;;;9.93;4.88;;;;;;;16.76;65.40;100919.13;7360938;19;20015;-62
2023/07/21 06:02:17;;;;;;;11.15;5.97;;;;;;;16.77;65.16;100912.75;7363537;19;20693;-62
2023/07/21 06:04:44;;;;;;;10.23;5.53;;;;;;;16.81;64.99;100924.69;7363180;19;20019;-61
2023/07/21 06:07:15;;;;;;;9.98;5.47;;;;;;;16.84;65.07;100924.28;7360398;19;20022;-62
2023/07/21 06:09:42;;;;;;;11.15;5.88;;;;;;;16.85;64.66;100923.28;7363101;19;20105;-62
2023/07/21 06:12:09;;;;;;;11.48;5.35;;;;;;;16.90;65.05;100918.22;7365214;19;20018;-63
2023/07/21 06:14:36;;;;;;;13.98;5.45;;;;;;;16.95;65.33;100924.59;7361732;19;20090;-61
2023/07/21 06:17:03;;;;;;;10.38;5.68;;;;;;;17.02;64.99;100922.81;7363322;19;20015;-61
2023/07/21 06:19:32;;;;;;;10.27;5.82;;;;;;;17.08;64.85;100923.88;7361909;19;20072;-60
2023/07/21 06:21:59;;;;;;;11.50;5.38;;;;;;;17.15;64.55;100919.44;7361478;19;20487;-61
2023/07/21 06:24:26;;;;;;;12.88;5.10;;;;;;;17.16;63.78;100915.78;7358395;19;20416;-62
2023/07/21 06:26:56;;;;;;;11.85;5.57;;;;;;;17.17;63.38;100921.91;7362657;19;20021;-61
2023/07/21 06:29:22;;;;;;;11.52;5.22;;;;;;;17.20;63.67;100919.69;7363979;19;20011;-62
2023/07/21 06:31:51;;;;;;;11.68;5.15;;;;;;;17.14;62.36;100925.75;7365722;19;20018;-63
2023/07/21 06:34:18;;;;;;;16.48;5.72;;;;;;;17.13;62.89;100925.94;7360393;19;20027;-63
2023/07/21 06:36:45;;;;;;;9.68;4.70;;;;;;;17.10;63.28;100924.50;7358330;19;20109;-61
2023/07/21 06:39:13;;;;;;;12.10;5.68;;;;;;;17.08;63.61;100916.72;7355037;19;20007;-62
2023/07/21 06:41:40;;;;;;;12.23;5.57;;;;;;;17.12;63.54;100924.34;7363575;19;20014;-62
2023/07/21 06:44:07;;;;;;;12.27;5.25;;;;;;;17.18;63.79;100927.00;7360915;19;20012;-61
2023/07/21 06:46:35;;;;;;;10.98;5.30;;;;;;;17.21;63.23;100917.84;7357447;19;20002;-62
2023/07/21 06:49:02;;;;;;;10.27;4.90;;;;;;;17.29;63.16;100933.66;7359925;19;20093;-62
2023/07/21 06:51:29;;;;;;;12.25;5.70;;;;;;;17.29;63.04;100921.16;7361872;19;20024;-62
2023/07/21 06:53:56;;;;;;;9.25;4.85;;;;;;;17.33;63.03;100929.56;7358482;19;20044;-64
2023/07/21 06:56:23;;;;;;;14.18;5.72;;;;;;;17.37;62.82;100929.00;7363581;19;21019;-61
2023/07/21 06:58:50;;;;;;;10.60;5.88;;;;;;;17.38;63.46;100929.81;7361762;19;20403;-63
2023/07/21 07:01:17;;;;;;;11.23;5.38;;;;;;;17.34;62.74;100932.06;7360892;19;20025;-62
2023/07/21 07:03:44;;;;;;;12.65;5.45;;;;;;;17.37;62.68;100928.19;7363113;19;20593;-60
2023/07/21 07:06:14;;;;;;;12.52;5.18;;;;;;;17.38;62.61;100929.81;7358410;19;20014;-63
2023/07/21 07:08:46;;;;;;;11.52;5.10;;;;;;;17.39;62.81;100926.97;7355955;19;20051;-62
2023/07/21 07:11:15;;;;;;;11.82;4.88;;;;;;;17.42;62.87;100931.88;7361482;19;20034;-62
2023/07/21 07:13:42;;;;;;;10.55;5.38;;;;;;;17.47;63.34;100931.31;7362486;19;20085;-62
2023/07/21 07:16:10;;;;;;;12.95;4.95;;;;;;;17.49;63.23;100931.94;7362213;19;20086;-63
2023/07/21 07:18:42;;;;;;;10.63;5.07;;;;;;;17.49;62.43;100934.59;7358298;19;20013;-61
2023/07/21 07:21:09;;;;;;;11.05;4.97;;;;;;;17.46;62.57;100940.31;7362434;19;20368;-61
2023/07/21 07:23:36;;;;;;;9.80;5.07;;;;;;;17.49;61.97;100935.44;7358259;19;20380;-60
2023/07/21 07:26:04;;;;;;;11.07;4.85;;;;;;;17.49;62.56;100939.91;7360986;19;20014;-63
2023/07/21 07:28:31;;;;;;;11.00;4.55;;;;;;;17.49;62.94;100935.44;7360263;19;20101;-61
2023/07/21 07:31:07;;;;;;;13.73;5.28;;;;;;;17.50;63.05;100937.06;7362419;19;20479;-62
2023/07/21 07:33:34;;;;;;;12.52;5.43;;;;;;;17.51;62.08;100930.75;7360182;19;20022;-61
2023/07/21 07:36:01;;;;;;;10.63;4.95;;;;;;;17.54;62.29;100934.84;7359423;19;20020;-62
2023/07/21 07:38:30;;;;;;;9.10;4.90;;;;;;;17.48;61.84;100931.13;7356698;19;20263;-61
2023/07/21 07:41:10;;;;;;;11.88;5.00;;;;;;;17.46;61.51;100933.16;7355052;19;20023;-61
2023/07/21 07:43:37;;;;;;;9.90;4.78;;;;;;;17.46;61.82;100927.84;7360373;19;20094;-63
2023/07/21 07:46:07;;;;;;;10.65;5.15;;;;;;;17.51;61.84;100922.75;7361915;19;20014;-62
2023/07/21 07:48:35;;;;;;;10.55;5.38;;;;;;;17.51;62.16;100927.25;7360646;19;20018;-62
2023/07/21 07:51:13;;;;;;;12.40;5.35;;;;;;;17.46;61.75;100922.53;7358581;19;20094;-61
2023/07/21 07:53:41;;;;;;;11.43;4.97;;;;;;;17.52;61.86;100935.03;7354710;19;20021;-64
2023/07/21 07:56:13;;;;;;;11.40;4.85;;;;;;;17.61;61.49;100927.75;7360565;19;20025;-61
2023/07/21 07:58:44;;;;;;;11.20;4.80;;;;;;;17.70;61.75;100939.88;7357636;19;20024;-62
2023/07/21 08:01:13;;;;;;;12.45;5.40;;;;;;;17.80;61.40;100932.34;7360970;19;20021;-62
2023/07/21 08:03:43;;;;;;;10.10;5.18;;;;;;;17.93;60.54;100934.25;7360953;19;22725;-62
2023/07/21 08:06:12;;;;;;;14.85;5.43;;;;;;;17.97;61.02;100934.69;7360312;19;20010;-62
2023/07/21 08:08:51;;;;;;;10.07;4.82;;;;;;;18.05;63.31;100922.00;7356537;19;20021;-62
2023/07/21 08:11:19;;;;;;;15.30;5.75;;;;;;;18.21;65.84;100924.34;7362079;19;20049;-62
2023/07/21 08:13:46;;;;;;;12.43;6.13;;;;;;;18.26;62.07;100929.88;7359829;19;20668;-62
2023/07/21 08:16:15;;;;;;;14.63;5.80;;;;;;;18.30;60.91;100938.28;7359807;19;20023;-62
2023/07/21 08:18:46;;;;;;;9.45;5.15;;;;;;;18.30;59.81;100932.94;7360860;19;20039;-62
2023/07/21 08:21:24;;;;;;;11.93;5.45;;;;;;;18.36;60.58;100940.97;7359104;19;20015;-63
2023/07/21 08:23:52;;;;;;;12.75;5.55;;;;;;;18.37;59.28;100936.47;7354132;19;20022;-62
2023/07/21 08:26:20;;;;;;;11.70;5.57;;;;;;;18.43;58.18;100941.00;7361816;19;20077;-62
2023/07/21 08:28:52;;;;;;;11.15;5.63;;;;;;;18.45;58.86;100938.13;7358056;19;20018;-62
2023/07/21 08:31:20;;;;;;;11.20;5.50;;;;;;;18.52;58.46;100930.97;7361978;19;20078;-62
2023/07/21 08:33:47;;;;;;;10.43;5.38;;;;;;;18.60;58.67;100939.63;7358564;19;20010;-63
2023/07/21 08:36:14;;;;;;;9.57;5.07;;;;;;;18.72;57.70;100935.34;7360700;19;20106;-62
2023/07/21 08:38:46;;;;;;;7.95;4.55;;;;;;;18.80;58.49;100935.13;7354436;19;20030;-60
2023/07/21 08:41:17;;;;;;;11.23;5.63;;;;;;;18.84;58.05;100932.06;7355949;19;20207;-61
2023/07/21 08:43:46;;;;;;;9.82;4.97;;;;;;;18.93;57.64;100936.19;7357761;19;20006;-63
2023/07/21 08:46:15;;;;;;;10.02;4.88;;;;;;;18.90;57.91;100932.06;7361416;19;20014;-62
2023/07/21 08:48:46;;;;;;;7.85;4.38;;;;;;;18.89;57.72;100932.28;7359152;19;20053;-60
2023/07/21 08:51:13;;;;;;;11.50;5.30;;;;;;;18.91;58.47;100933.72;7359014;19;20043;-63
2023/07/21 08:53:40;;;;;;;9.38;5.57;;;;;;;18.93;57.50;100934.34;7360056;19;20035;-62
2023/07/21 08:56:09;;;;;;;13.20;4.93;;;;;;;19.03;58.69;100939.25;7360143;19;20015;-62
2023/07/21 08:58:44;;;;;;;10.35;5.28;;;;;;;19.09;56.85;100941.13;7362384;19;20015;-63
2023/07/21 09:01:11;;;;;;;10.38;4.50;;;;;;;19.12;57.05;100944.19;7359753;19;20042;-61
2023/07/21 09:03:44;;;;;;;9.35;4.35;;;;;;;19.14;56.66;100938.66;7356442;19;20102;-61
2023/07/21 09:06:13;;;;;;;10.60;4.47;;;;;;;19.15;56.89;100927.75;7358033;19;20018;-61
2023/07/21 09:08:47;;;;;;;7.85;4.07;;;;;;;19.18;57.39;100934.53;7357863;19;20729;-61
2023/07/21 09:11:16;;;;;;;7.88;4.68;;;;;;;19.23;58.07;100935.56;7360608;19;20022;-61
2023/07/21 09:13:52;;;;;;;10.63;4.55;;;;;;;19.26;57.14;100931.63;7356487;19;21413;-63
2023/07/21 09:16:20;;;;;;;10.10;4.80;;;;;;;19.43;57.25;100927.53;7360497;19;20564;-61
2023/07/21 09:18:56;;;;;;;7.97;4.30;;;;;;;19.71;57.50;100926.47;7357615;19;20020;-62
2023/07/21 09:21:24;;;;;;;9.63;4.07;;;;;;;19.84;55.42;100931.75;7354880;19;20015;-62
2023/07/21 09:23:59;;;;;;;9.18;4.75;;;;;;;19.88;55.53;100939.13;7354003;19;21001;-61
2023/07/21 09:26:26;;;;;;;8.35;4.60;;;;;;;19.92;55.47;100939.53;7355479;19;20371;-61
2023/07/21 09:28:54;;;;;;;8.68;4.43;;;;;;;19.90;54.02;100938.94;7363140;19;21210;-63
2023/07/21 09:31:33;;;;;;;7.78;4.35;;;;;;;19.94;52.74;100940.97;7367508;19;20110;-61
2023/07/21 09:34:06;;;;;;;9.73;4.90;;;;;;;19.89;53.88;100935.44;7365947;19;20102;-61
2023/07/21 09:36:33;;;;;;;7.80;4.60;;;;;;;19.86;53.98;100935.84;7365511;19;20536;-60
2023/07/21 09:39:03;;;;;;;10.45;4.75;;;;;;;19.81;52.96;100937.53;7357612;19;20036;-62
2023/07/21 09:41:32;;;;;;;10.13;4.60;;;;;;;19.69;54.05;100937.34;7358098;19;20850;-63
2023/07/21 09:44:00;;;;;;;9.25;4.28;;;;;;;19.64;56.53;100935.31;7362473;19;20010;-62
2023/07/21 09:46:27;;;;;;;8.00;4.28;;;;;;;19.64;53.76;100938.00;7365455;19;20022;-62
2023/07/21 09:48:54;;;;;;;7.70;3.95;;;;;;;19.63;54.14;100935.53;7365182;19;20018;-62
2023/07/21 09:51:21;;;;;;;9.07;3.92;;;;;;;19.60;55.25;100935.94;7359629;19;20018;-62
2023/07/21 09:53:52;;;;;;;9.65;4.35;;;;;;;19.69;55.38;100931.19;7360357;19;20010;-62
2023/07/21 09:56:21;;;;;;;6.75;4.05;;;;;;;19.82;56.03;100933.81;7365558;19;20022;-62
2023/07/21 09:58:53;;;;;;;6.82;3.88;;;;;;;19.96;54.98;100927.41;7363123;19;20049;-63
2023/07/21 10:01:22;;;;;;;7.32;4.05;;;;;;;20.11;53.87;100932.47;7363317;19;20018;-62
2023/07/21 10:03:50;;;;;;;7.80;3.90;;;;;;;20.19;53.63;100930.38;7363705;19;20050;-62
2023/07/21 10:06:17;;;;;;;8.00;3.90;;;;;;;20.19;53.61;100933.06;7359958;19;20515;-64
2023/07/21 10:08:47;;;;;;;7.47;3.90;;;;;;;20.16;54.90;100928.16;7360620;19;20061;-62
2023/07/21 10:11:14;;;;;;;6.45;3.60;;;;;;;20.25;55.58;100918.00;7363434;19;20017;-62
2023/07/21 10:13:45;;;;;;;7.32;3.50;;;;;;;20.33;55.20;100917.78;7364287;19;20105;-63
2023/07/21 10:16:14;;;;;;;6.60;3.33;;;;;;;20.51;54.19;100928.59;7365632;19;20056;-62
2023/07/21 10:19:01;;;;;;;8.23;3.00;;;;;;;20.53;53.95;100926.50;7357366;19;20945;-63
2023/07/21 10:21:48;;;;;;;7.00;3.22;;;;;;;20.54;53.54;100930.00;7362591;19;20025;-63
2023/07/21 10:24:26;;;;;;;6.07;2.63;;;;;;;20.53;52.47;100933.69;7361313;19;20257;-63
2023/07/21 10:27:00;;;;;;;5.93;3.65;;;;;;;20.54;53.43;100930.00;7365486;19;21681;-62
2023/07/21 10:29:27;;;;;;;6.10;3.20;;;;;;;20.48;53.65;100923.66;7361016;19;20021;-62
2023/07/21 10:31:56;;;;;;;7.35;3.95;;;;;;;20.49;55.70;100922.63;7365710;19;20015;-67
2023/07/21 10:34:26;;;;;;;6.00;3.50;;;;;;;20.49;54.53;100925.31;7362950;19;20021;-63
2023/07/21 10:36:53;;;;;;;6.43;3.45;;;;;;;20.49;54.54;100931.47;7360198;19;20018;-62
2023/07/21 10:39:23;;;;;;;6.78;3.05;;;;;;;20.53;55.46;100923.84;7359202;19;20090;-62
2023/07/21 10:41:52;;;;;;;6.80;3.40;;;;;;;20.56;54.59;100931.44;7361916;19;20302;-62
2023/07/21 10:44:21;;;;;;;7.18;3.35;;;;;;;20.57;55.50;100925.03;7360527;19;20014;-62
2023/07/21 10:46:49;;;;;;;6.07;2.88;;;;;;;20.58;54.73;100928.53;7364633;19;20022;-62
2023/07/21 10:49:18;;;;;;;7.40;3.17;;;;;;;20.59;53.83;100922.97;7360804;19;20018;-62
2023/07/21 10:51:48;;;;;;;5.47;2.80;;;;;;;20.56;54.13;100911.91;7360722;19;20014;-63
2023/07/21 10:54:17;;;;;;;6.75;2.60;;;;;;;20.53;54.41;100918.47;7359313;19;20018;-64
2023/07/21 10:56:46;;;;;;;5.88;2.42;;;;;;;20.54;55.28;100912.09;7364356;19;20045;-63
2023/07/21 10:59:15;;;;;;;10.02;3.13;;;;;;;20.60;55.91;100905.91;7364419;19;20886;-62
2023/07/21 11:01:45;;;;;;;6.93;2.92;;;;;;;20.66;55.04;100910.38;7362855;19;20410;-62
2023/07/21 11:04:14;;;;;;;5.13;2.80;;;;;;;20.73;55.36;100905.78;7363030;19;20014;-64
2023/07/21 11:06:42;;;;;;;6.20;2.67;;;;;;;20.80;54.43;100903.06;7349807;19;21732;-62
2023/07/21 11:09:11;;;;;;;5.30;1.98;;;;;;;20.91;53.97;100919.25;7357581;19;21017;-61
2023/07/21 11:11:46;;;;;;;3.08;1.60;;;;;;;20.94;51.21;100912.63;7362502;19;20029;-62
2023/07/21 11:14:16;;;;;;;2.67;1.25;;;;;;;20.92;51.47;100918.22;7362471;19;20105;-62
2023/07/21 11:16:51;;;;;;;2.75;1.20;;;;;;;20.93;52.67;100919.84;7364307;19;20019;-64
2023/07/21 11:19:20;;;;;;;3.65;1.70;;;;;;;20.95;53.10;100916.13;7359994;19;20034;-61
2023/07/21 11:21:48;;;;;;;4.32;2.33;;;;;;;20.94;53.49;100904.59;7363631;19;20114;-61
2023/07/21 11:24:23;;;;;;;5.22;2.15;;;;;;;20.98;54.21;100918.38;7360559;19;20050;-61
2023/07/21 11:26:53;;;;;;;4.65;1.50;;;;;;;21.02;53.90;100916.91;7362375;19;20011;-64
2023/07/21 11:29:21;;;;;;;3.05;1.70;;;;;;;21.08;52.94;100902.66;7365384;19;20017;-62